Terminal Aerodrome Forecast
Issued by NWS Wilmington, OH

Current Version | Previous Version | Text Only | Print | Product List | Glossary Off
Versions: 1 2 3 4 5 6 7 8 9 10 11 12 13 14 15 16 17 18 19 20 21 22 23 24 25 26 27

271
FTUS41 KILN 220859 AAB
TAFCVG
TAF AMD
KCVG 220859Z 2209/2312 21003KT P6SM FEW150 OVC250
     FM221400 23007KT P6SM VCTS SCT040CB BKN120
     FM230000 13004KT P6SM SCT250=

USA.gov is the U.S. government's official web portal to all federal, state and local government web resources and services.